WTB08M MYNN-MTPP
Flight info
| Callsign | WTB08M |
|---|---|
| Flight time | 1h 16m |
| Altitude | 37000 |
| Route | BOSAR DCT KNSLY DCT JOSES/N0447F230 A315 SAVAR SAVAR1C |
| Aircraft | R722/M-SDFGRWY/S |
Departure
| Time | 2026-04-20 18:35 |
|---|---|
| Airport | Lynden Pindling International Airport (MYNN) |
Arrival
| Time | 2026-04-20 19:51 |
|---|---|
| Airport | Toussaint Louverture International Airport (MTPP) |
| Time | Latitude | Longitude | Altitude | Speed | Heading |
|---|---|---|---|---|---|
| 2026-04-20 18:04 | 25.05155 | -77.46905 | 16 ft | 0 kts | 211° |
| 2026-04-20 18:28 | 25.05148 | -77.46913 | 17 ft | 3 kts | 242° |
| 2026-04-20 18:28 | 25.05143 | -77.46948 | 15 ft | 7 kts | 264° |
| 2026-04-20 18:28 | 25.05136 | -77.47005 | 17 ft | 8 kts | 246° |
| 2026-04-20 18:29 | 25.05094 | -77.47060 | 15 ft | 10 kts | 224° |
| 2026-04-20 18:29 | 25.05051 | -77.47128 | 15 ft | 12 kts | 268° |
| 2026-04-20 18:29 | 25.05073 | -77.47181 | 15 ft | 0 kts | 312° |
| 2026-04-20 18:29 | 25.05074 | -77.47182 | 15 ft | 2 kts | 312° |
| 2026-04-20 18:30 | 25.05100 | -77.47212 | 18 ft | 7 kts | 314° |
| 2026-04-20 18:30 | 25.05139 | -77.47256 | 16 ft | 9 kts | 314° |
| 2026-04-20 18:30 | 25.05187 | -77.47309 | 15 ft | 11 kts | 313° |
| 2026-04-20 18:30 | 25.05223 | -77.47383 | 16 ft | 12 kts | 275° |
| 2026-04-20 18:31 | 25.05222 | -77.47407 | 16 ft | 0 kts | 260° |
| 2026-04-20 18:32 | 25.05217 | -77.47431 | 16 ft | 6 kts | 257° |
| 2026-04-20 18:32 | 25.05193 | -77.47497 | 18 ft | 11 kts | 232° |
| 2026-04-20 18:32 | 25.05156 | -77.47521 | 16 ft | 5 kts | 159° |
| 2026-04-20 18:32 | 25.05146 | -77.47514 | 16 ft | 0 kts | 144° |
| 2026-04-20 18:35 | 25.05082 | -77.47454 | 14 ft | 44 kts | 134° |
| 2026-04-20 18:35 | 25.04676 | -77.46999 | 18 ft | 119 kts | 134° |
| 2026-04-20 18:35 | 25.03976 | -77.46206 | 139 ft | 158 kts | 130° |
| 2026-04-20 18:35 | 25.03183 | -77.45282 | 662 ft | 175 kts | 133° |
| 2026-04-20 18:36 | 25.02278 | -77.44357 | 1445 ft | 175 kts | 136° |
| 2026-04-20 18:36 | 25.01356 | -77.43344 | 1844 ft | 206 kts | 131° |
| 2026-04-20 18:36 | 25.00261 | -77.42073 | 2068 ft | 252 kts | 133° |
| 2026-04-20 18:36 | 24.99027 | -77.40579 | 2792 ft | 263 kts | 127° |
| 2026-04-20 18:37 | 24.97993 | -77.38973 | 4005 ft | 261 kts | 122° |
| 2026-04-20 18:37 | 24.96980 | -77.37268 | 4902 ft | 270 kts | 123° |
| 2026-04-20 18:37 | 24.95900 | -77.35547 | 5843 ft | 276 kts | 125° |
| 2026-04-20 18:37 | 24.94779 | -77.33807 | 6734 ft | 282 kts | 125° |
| 2026-04-20 18:38 | 24.93648 | -77.32023 | 7625 ft | 285 kts | 124° |
| 2026-04-20 18:38 | 24.92507 | -77.30214 | 8490 ft | 290 kts | 125° |
| 2026-04-20 18:38 | 24.91343 | -77.28380 | 9318 ft | 295 kts | 125° |
| 2026-04-20 18:38 | 24.90157 | -77.26513 | 10139 ft | 300 kts | 125° |
| 2026-04-20 18:39 | 24.88925 | -77.24573 | 10469 ft | 322 kts | 125° |
| 2026-04-20 18:39 | 24.87608 | -77.22495 | 10929 ft | 332 kts | 125° |
| 2026-04-20 18:39 | 24.86289 | -77.20417 | 11722 ft | 333 kts | 126° |
| 2026-04-20 18:39 | 24.84941 | -77.18302 | 12300 ft | 341 kts | 126° |
| 2026-04-20 18:40 | 24.83577 | -77.16153 | 12971 ft | 345 kts | 126° |
| 2026-04-20 18:40 | 24.82187 | -77.13967 | 13609 ft | 350 kts | 127° |
| 2026-04-20 18:40 | 24.80780 | -77.11759 | 14203 ft | 355 kts | 127° |
| 2026-04-20 18:40 | 24.79357 | -77.09520 | 14805 ft | 358 kts | 127° |
| 2026-04-20 18:41 | 24.77915 | -77.07260 | 15416 ft | 362 kts | 127° |
| 2026-04-20 18:41 | 24.76461 | -77.04976 | 16027 ft | 366 kts | 127° |
| 2026-04-20 18:41 | 24.74992 | -77.02672 | 16606 ft | 370 kts | 127° |
| 2026-04-20 18:41 | 24.73504 | -77.00340 | 17208 ft | 374 kts | 127° |
| 2026-04-20 18:42 | 24.72006 | -76.97990 | 17810 ft | 378 kts | 127° |
| 2026-04-20 18:42 | 24.70503 | -76.95637 | 18414 ft | 382 kts | 127° |
| 2026-04-20 18:42 | 24.68968 | -76.93235 | 18937 ft | 386 kts | 127° |
| 2026-04-20 18:42 | 24.67415 | -76.90802 | 19474 ft | 390 kts | 127° |
| 2026-04-20 18:43 | 24.65842 | -76.88345 | 19996 ft | 395 kts | 127° |
| 2026-04-20 18:43 | 24.64239 | -76.85873 | 20520 ft | 398 kts | 130° |
| 2026-04-20 18:43 | 24.62329 | -76.83668 | 21039 ft | 399 kts | 141° |
| 2026-04-20 18:43 | 24.60191 | -76.81717 | 21590 ft | 401 kts | 146° |
| 2026-04-20 18:44 | 24.57938 | -76.79878 | 22132 ft | 406 kts | 146° |
| 2026-04-20 18:44 | 24.55717 | -76.77935 | 22677 ft | 412 kts | 143° |
| 2026-04-20 18:44 | 24.53525 | -76.75880 | 23223 ft | 416 kts | 143° |
| 2026-04-20 18:44 | 24.51277 | -76.73844 | 23756 ft | 420 kts | 145° |
| 2026-04-20 18:45 | 24.48977 | -76.71845 | 24227 ft | 424 kts | 145° |
| 2026-04-20 18:45 | 24.46672 | -76.69806 | 24729 ft | 428 kts | 144° |
| 2026-04-20 18:45 | 24.44360 | -76.67714 | 25232 ft | 432 kts | 144° |
| 2026-04-20 18:45 | 24.42023 | -76.65621 | 25744 ft | 435 kts | 144° |
| 2026-04-20 18:46 | 24.39660 | -76.63533 | 26227 ft | 439 kts | 144° |
| 2026-04-20 18:46 | 24.37270 | -76.61409 | 26729 ft | 443 kts | 144° |
| 2026-04-20 18:46 | 24.34875 | -76.59268 | 27220 ft | 446 kts | 144° |
| 2026-04-20 18:46 | 24.32451 | -76.57112 | 27708 ft | 450 kts | 144° |
| 2026-04-20 18:47 | 24.30000 | -76.54937 | 28191 ft | 454 kts | 144° |
| 2026-04-20 18:47 | 24.27543 | -76.52753 | 28663 ft | 458 kts | 144° |
| 2026-04-20 18:47 | 24.25089 | -76.50572 | 29144 ft | 462 kts | 144° |
| 2026-04-20 18:47 | 24.22584 | -76.48350 | 29623 ft | 465 kts | 144° |
| 2026-04-20 18:48 | 24.20061 | -76.46110 | 30083 ft | 469 kts | 144° |
| 2026-04-20 18:48 | 24.17512 | -76.43850 | 30486 ft | 473 kts | 144° |
| 2026-04-20 18:48 | 24.14948 | -76.41578 | 30867 ft | 477 kts | 144° |
| 2026-04-20 18:48 | 24.12357 | -76.39282 | 31258 ft | 480 kts | 145° |
| 2026-04-20 18:49 | 24.09745 | -76.36970 | 31619 ft | 484 kts | 145° |
| 2026-04-20 18:49 | 24.07117 | -76.34645 | 32004 ft | 488 kts | 145° |
| 2026-04-20 18:49 | 24.04469 | -76.32302 | 32363 ft | 492 kts | 145° |
| 2026-04-20 18:49 | 24.01793 | -76.29938 | 32727 ft | 496 kts | 145° |
| 2026-04-20 18:50 | 23.99103 | -76.27561 | 33088 ft | 499 kts | 145° |
| 2026-04-20 18:50 | 23.96395 | -76.25171 | 33366 ft | 502 kts | 145° |
| 2026-04-20 18:50 | 23.93656 | -76.22753 | 33586 ft | 505 kts | 145° |
| 2026-04-20 18:50 | 23.90918 | -76.20338 | 33805 ft | 508 kts | 145° |
| 2026-04-20 18:51 | 23.88159 | -76.17907 | 34040 ft | 510 kts | 145° |
| 2026-04-20 18:51 | 23.85392 | -76.15469 | 34236 ft | 512 kts | 145° |
| 2026-04-20 18:51 | 23.82616 | -76.13024 | 34473 ft | 513 kts | 145° |
| 2026-04-20 18:51 | 23.79855 | -76.10595 | 34710 ft | 515 kts | 145° |
| 2026-04-20 18:52 | 23.77066 | -76.08142 | 34904 ft | 517 kts | 145° |
| 2026-04-20 18:52 | 23.74256 | -76.05673 | 35089 ft | 518 kts | 145° |
| 2026-04-20 18:52 | 23.71449 | -76.03207 | 35303 ft | 520 kts | 145° |
| 2026-04-20 18:52 | 23.68629 | -76.00730 | 35503 ft | 522 kts | 145° |
| 2026-04-20 18:53 | 23.65789 | -75.98239 | 35707 ft | 523 kts | 145° |
| 2026-04-20 18:53 | 23.62947 | -75.95746 | 35891 ft | 525 kts | 145° |
| 2026-04-20 18:53 | 23.60099 | -75.93250 | 36108 ft | 527 kts | 145° |
| 2026-04-20 18:53 | 23.57234 | -75.90742 | 36307 ft | 528 kts | 145° |
| 2026-04-20 18:54 | 23.54363 | -75.88228 | 36512 ft | 530 kts | 145° |
| 2026-04-20 18:54 | 23.51482 | -75.85706 | 36710 ft | 532 kts | 145° |
| 2026-04-20 18:54 | 23.48596 | -75.83184 | 36903 ft | 533 kts | 145° |
| 2026-04-20 18:54 | 23.45678 | -75.80635 | 36940 ft | 538 kts | 145° |
| 2026-04-20 18:55 | 23.39766 | -75.75474 | 36947 ft | 550 kts | 145° |
| 2026-04-20 18:55 | 23.33774 | -75.70247 | 36952 ft | 561 kts | 145° |
| 2026-04-20 18:56 | 23.27621 | -75.64888 | 36957 ft | 572 kts | 145° |
| 2026-04-20 18:56 | 23.24580 | -75.62233 | 36949 ft | 550 kts | 145° |
| 2026-04-20 18:56 | 23.21614 | -75.59651 | 36945 ft | 545 kts | 145° |
| 2026-04-20 18:57 | 23.16621 | -75.55330 | 36946 ft | 549 kts | 145° |
| 2026-04-20 18:57 | 23.10690 | -75.50167 | 36948 ft | 550 kts | 145° |
| 2026-04-20 18:58 | 23.04699 | -75.44982 | 36942 ft | 549 kts | 145° |
| 2026-04-20 18:58 | 22.98832 | -75.39887 | 36927 ft | 529 kts | 145° |
| 2026-04-20 18:59 | 22.93050 | -75.34903 | 36934 ft | 533 kts | 145° |
| 2026-04-20 18:59 | 22.87258 | -75.29886 | 36936 ft | 533 kts | 145° |
| 2026-04-20 19:00 | 22.81447 | -75.24877 | 36938 ft | 534 kts | 145° |
| 2026-04-20 19:00 | 22.75635 | -75.19862 | 36938 ft | 534 kts | 145° |
| 2026-04-20 19:01 | 22.69823 | -75.14858 | 36942 ft | 532 kts | 145° |
| 2026-04-20 19:01 | 22.64025 | -75.09871 | 36937 ft | 532 kts | 145° |
| 2026-04-20 19:02 | 22.58223 | -75.04884 | 36944 ft | 532 kts | 145° |
| 2026-04-20 19:02 | 22.52431 | -74.99912 | 36947 ft | 532 kts | 145° |
| 2026-04-20 19:03 | 22.46664 | -74.94969 | 36945 ft | 532 kts | 145° |
| 2026-04-20 19:03 | 22.40863 | -74.90001 | 36944 ft | 532 kts | 145° |
| 2026-04-20 19:04 | 22.35072 | -74.85044 | 36934 ft | 530 kts | 145° |
| 2026-04-20 19:04 | 22.29289 | -74.80104 | 36932 ft | 530 kts | 145° |
| 2026-04-20 19:05 | 22.23523 | -74.75179 | 36925 ft | 521 kts | 145° |
| 2026-04-20 19:05 | 22.17826 | -74.70325 | 36927 ft | 522 kts | 145° |
| 2026-04-20 19:06 | 22.12120 | -74.65461 | 36922 ft | 522 kts | 145° |
| 2026-04-20 19:06 | 22.06414 | -74.60608 | 36919 ft | 528 kts | 145° |
| 2026-04-20 19:07 | 22.00630 | -74.55689 | 36932 ft | 527 kts | 145° |
| 2026-04-20 19:07 | 21.94874 | -74.50804 | 36931 ft | 526 kts | 145° |
| 2026-04-20 19:08 | 21.86268 | -74.43505 | 36927 ft | 526 kts | 145° |
| 2026-04-20 19:09 | 21.80516 | -74.38633 | 36928 ft | 526 kts | 145° |
| 2026-04-20 19:09 | 21.74759 | -74.33763 | 36931 ft | 526 kts | 145° |
| 2026-04-20 19:10 | 21.69037 | -74.28925 | 36906 ft | 516 kts | 145° |
| 2026-04-20 19:10 | 21.63403 | -74.24173 | 36911 ft | 515 kts | 145° |
| 2026-04-20 19:11 | 21.57764 | -74.19413 | 36911 ft | 516 kts | 145° |
| 2026-04-20 19:11 | 21.52121 | -74.14661 | 36911 ft | 515 kts | 145° |
| 2026-04-20 19:12 | 21.46473 | -74.09907 | 36910 ft | 516 kts | 145° |
| 2026-04-20 19:12 | 21.40857 | -74.05184 | 36906 ft | 516 kts | 145° |
| 2026-04-20 19:13 | 21.35205 | -74.00437 | 36906 ft | 516 kts | 145° |
| 2026-04-20 19:13 | 21.29568 | -73.95706 | 36910 ft | 514 kts | 145° |
| 2026-04-20 19:14 | 21.23936 | -73.90985 | 36910 ft | 514 kts | 145° |
| 2026-04-20 19:14 | 21.18302 | -73.86268 | 36907 ft | 514 kts | 145° |
| 2026-04-20 19:15 | 21.12656 | -73.81544 | 36902 ft | 514 kts | 145° |
| 2026-04-20 19:15 | 21.07056 | -73.76862 | 36905 ft | 514 kts | 145° |
| 2026-04-20 19:16 | 21.01383 | -73.72127 | 36905 ft | 514 kts | 145° |
| 2026-04-20 19:16 | 20.95727 | -73.67548 | 36898 ft | 511 kts | 150° |
| 2026-04-20 19:17 | 20.89511 | -73.63904 | 36907 ft | 508 kts | 159° |
| 2026-04-20 19:17 | 20.83191 | -73.60518 | 36912 ft | 510 kts | 154° |
| 2026-04-20 19:18 | 20.76979 | -73.56870 | 36910 ft | 508 kts | 157° |
| 2026-04-20 19:18 | 20.70674 | -73.53422 | 36907 ft | 509 kts | 155° |
| 2026-04-20 19:19 | 20.64479 | -73.49859 | 36899 ft | 509 kts | 156° |
| 2026-04-20 19:19 | 20.58156 | -73.46352 | 36898 ft | 509 kts | 156° |
| 2026-04-20 19:20 | 20.51938 | -73.42825 | 36894 ft | 509 kts | 156° |
| 2026-04-20 19:20 | 20.45661 | -73.39321 | 36897 ft | 509 kts | 156° |
| 2026-04-20 19:21 | 20.39402 | -73.35797 | 36894 ft | 509 kts | 156° |
| 2026-04-20 19:21 | 20.33133 | -73.32290 | 36897 ft | 509 kts | 156° |
| 2026-04-20 19:22 | 20.26867 | -73.28778 | 36896 ft | 509 kts | 156° |
| 2026-04-20 19:22 | 20.20627 | -73.25289 | 36897 ft | 510 kts | 156° |
| 2026-04-20 19:23 | 20.14342 | -73.21775 | 36657 ft | 513 kts | 156° |
| 2026-04-20 19:23 | 20.11131 | -73.19988 | 35995 ft | 528 kts | 155° |
| 2026-04-20 19:23 | 20.07870 | -73.18170 | 35302 ft | 526 kts | 155° |
| 2026-04-20 19:23 | 20.04657 | -73.16370 | 34607 ft | 518 kts | 155° |
| 2026-04-20 19:24 | 20.01477 | -73.14600 | 33914 ft | 512 kts | 155° |
| 2026-04-20 19:24 | 19.98336 | -73.12856 | 33203 ft | 506 kts | 155° |
| 2026-04-20 19:24 | 19.95233 | -73.11128 | 32551 ft | 502 kts | 155° |
| 2026-04-20 19:24 | 19.92150 | -73.09412 | 31890 ft | 497 kts | 155° |
| 2026-04-20 19:25 | 19.89097 | -73.07715 | 31237 ft | 493 kts | 155° |
| 2026-04-20 19:25 | 19.86108 | -73.06037 | 30601 ft | 490 kts | 155° |
| 2026-04-20 19:25 | 19.83011 | -73.04286 | 29912 ft | 520 kts | 155° |
| 2026-04-20 19:25 | 19.79762 | -73.02462 | 29201 ft | 533 kts | 154° |
| 2026-04-20 19:26 | 19.76474 | -73.00608 | 28486 ft | 532 kts | 154° |
| 2026-04-20 19:26 | 19.73258 | -72.98711 | 27791 ft | 524 kts | 152° |
| 2026-04-20 19:26 | 19.70141 | -72.96765 | 27097 ft | 516 kts | 151° |
| 2026-04-20 19:26 | 19.67062 | -72.94878 | 26418 ft | 508 kts | 153° |
| 2026-04-20 19:27 | 19.63974 | -72.93071 | 25741 ft | 502 kts | 153° |
| 2026-04-20 19:27 | 19.60950 | -72.91283 | 25098 ft | 495 kts | 152° |
| 2026-04-20 19:27 | 19.57980 | -72.89467 | 24446 ft | 489 kts | 151° |
| 2026-04-20 19:27 | 19.55046 | -72.87686 | 23815 ft | 482 kts | 152° |
| 2026-04-20 19:28 | 19.52140 | -72.85965 | 23124 ft | 476 kts | 152° |
| 2026-04-20 19:28 | 19.49275 | -72.84259 | 22500 ft | 463 kts | 151° |
| 2026-04-20 19:28 | 19.46555 | -72.82613 | 21897 ft | 442 kts | 151° |
| 2026-04-20 19:28 | 19.43900 | -72.81017 | 21322 ft | 431 kts | 151° |
| 2026-04-20 19:29 | 19.41358 | -72.79504 | 20771 ft | 411 kts | 151° |
| 2026-04-20 19:29 | 19.38902 | -72.78034 | 20238 ft | 401 kts | 151° |
| 2026-04-20 19:29 | 19.36480 | -72.76581 | 19709 ft | 396 kts | 151° |
| 2026-04-20 19:29 | 19.34119 | -72.75169 | 19204 ft | 393 kts | 151° |
| 2026-04-20 19:30 | 19.31747 | -72.73751 | 18687 ft | 389 kts | 151° |
| 2026-04-20 19:30 | 19.29401 | -72.72348 | 18162 ft | 385 kts | 151° |
| 2026-04-20 19:30 | 19.27077 | -72.70959 | 17628 ft | 382 kts | 150° |
| 2026-04-20 19:30 | 19.24800 | -72.69598 | 17129 ft | 369 kts | 150° |
| 2026-04-20 19:31 | 19.22618 | -72.68294 | 16647 ft | 350 kts | 150° |
| 2026-04-20 19:31 | 19.20536 | -72.67052 | 16193 ft | 339 kts | 150° |
| 2026-04-20 19:31 | 19.18504 | -72.65840 | 15754 ft | 335 kts | 150° |
| 2026-04-20 19:31 | 19.16482 | -72.64638 | 15319 ft | 329 kts | 150° |
| 2026-04-20 19:32 | 19.14487 | -72.63454 | 14899 ft | 329 kts | 150° |
| 2026-04-20 19:32 | 19.12508 | -72.62282 | 14468 ft | 324 kts | 150° |
| 2026-04-20 19:32 | 19.10544 | -72.61120 | 14038 ft | 319 kts | 150° |
| 2026-04-20 19:32 | 19.08659 | -72.60008 | 13601 ft | 303 kts | 151° |
| 2026-04-20 19:33 | 19.06855 | -72.58924 | 13277 ft | 294 kts | 150° |
| 2026-04-20 19:33 | 19.05073 | -72.57853 | 12950 ft | 294 kts | 152° |
| 2026-04-20 19:33 | 19.03223 | -72.56949 | 12595 ft | 291 kts | 159° |
| 2026-04-20 19:33 | 19.01337 | -72.56182 | 12279 ft | 289 kts | 159° |
| 2026-04-20 19:34 | 18.99457 | -72.55421 | 11944 ft | 289 kts | 159° |
| 2026-04-20 19:34 | 18.97586 | -72.54665 | 11615 ft | 286 kts | 159° |
| 2026-04-20 19:34 | 18.95730 | -72.53917 | 11294 ft | 283 kts | 159° |
| 2026-04-20 19:34 | 18.93885 | -72.53176 | 10954 ft | 284 kts | 159° |
| 2026-04-20 19:35 | 18.92065 | -72.52401 | 10635 ft | 281 kts | 152° |
| 2026-04-20 19:35 | 18.90608 | -72.51079 | 10299 ft | 278 kts | 122° |
| 2026-04-20 19:35 | 18.89928 | -72.49192 | 9976 ft | 275 kts | 99° |
| 2026-04-20 19:35 | 18.89696 | -72.47193 | 9633 ft | 274 kts | 94° |
| 2026-04-20 19:36 | 18.89526 | -72.45201 | 9310 ft | 272 kts | 95° |
| 2026-04-20 19:36 | 18.89356 | -72.43217 | 9013 ft | 270 kts | 95° |
| 2026-04-20 19:36 | 18.89199 | -72.41247 | 8715 ft | 269 kts | 94° |
| 2026-04-20 19:36 | 18.89042 | -72.39279 | 8415 ft | 268 kts | 95° |
| 2026-04-20 19:37 | 18.88887 | -72.37346 | 8126 ft | 267 kts | 95° |
| 2026-04-20 19:37 | 18.88684 | -72.35415 | 7988 ft | 264 kts | 105° |
| 2026-04-20 19:37 | 18.87876 | -72.33689 | 8008 ft | 263 kts | 123° |
| 2026-04-20 19:37 | 18.86804 | -72.32126 | 8009 ft | 259 kts | 127° |
| 2026-04-20 19:38 | 18.85761 | -72.30677 | 8001 ft | 244 kts | 126° |
| 2026-04-20 19:38 | 18.84762 | -72.29221 | 7998 ft | 245 kts | 125° |
| 2026-04-20 19:38 | 18.83768 | -72.27760 | 7996 ft | 246 kts | 126° |
| 2026-04-20 19:38 | 18.82757 | -72.26283 | 7732 ft | 250 kts | 126° |
| 2026-04-20 19:39 | 18.81731 | -72.24784 | 6756 ft | 247 kts | 126° |
| 2026-04-20 19:39 | 18.80751 | -72.23357 | 6458 ft | 236 kts | 126° |
| 2026-04-20 19:39 | 18.79788 | -72.21952 | 6327 ft | 236 kts | 126° |
| 2026-04-20 19:39 | 18.78831 | -72.20548 | 6312 ft | 235 kts | 126° |
| 2026-04-20 19:40 | 18.77864 | -72.19144 | 6312 ft | 238 kts | 126° |
| 2026-04-20 19:40 | 18.76892 | -72.17732 | 6310 ft | 238 kts | 126° |
| 2026-04-20 19:40 | 18.75924 | -72.16316 | 6307 ft | 238 kts | 126° |
| 2026-04-20 19:40 | 18.74949 | -72.14893 | 6308 ft | 239 kts | 126° |
| 2026-04-20 19:41 | 18.73904 | -72.13554 | 6269 ft | 238 kts | 140° |
| 2026-04-20 19:41 | 18.72468 | -72.12703 | 6206 ft | 237 kts | 161° |
| 2026-04-20 19:41 | 18.70861 | -72.12319 | 6107 ft | 239 kts | 172° |
| 2026-04-20 19:41 | 18.69216 | -72.12128 | 5991 ft | 237 kts | 174° |
| 2026-04-20 19:42 | 18.67622 | -72.11924 | 5871 ft | 216 kts | 172° |
| 2026-04-20 19:42 | 18.66154 | -72.11695 | 5743 ft | 212 kts | 170° |
| 2026-04-20 19:42 | 18.64801 | -72.11123 | 5657 ft | 210 kts | 144° |
| 2026-04-20 19:42 | 18.63798 | -72.10003 | 5554 ft | 213 kts | 122° |
| 2026-04-20 19:43 | 18.63224 | -72.08558 | 5471 ft | 214 kts | 108° |
| 2026-04-20 19:43 | 18.62825 | -72.07049 | 5373 ft | 214 kts | 106° |
| 2026-04-20 19:43 | 18.62411 | -72.05541 | 5254 ft | 214 kts | 108° |
| 2026-04-20 19:43 | 18.61998 | -72.04114 | 5149 ft | 198 kts | 108° |
| 2026-04-20 19:44 | 18.61600 | -72.02737 | 5047 ft | 195 kts | 108° |
| 2026-04-20 19:44 | 18.61211 | -72.01398 | 4946 ft | 187 kts | 109° |
| 2026-04-20 19:44 | 18.60593 | -72.00227 | 4829 ft | 183 kts | 137° |
| 2026-04-20 19:44 | 18.59533 | -71.99497 | 4700 ft | 183 kts | 160° |
| 2026-04-20 19:45 | 18.58283 | -71.99336 | 4522 ft | 183 kts | 187° |
| 2026-04-20 19:45 | 18.57071 | -71.99711 | 4327 ft | 183 kts | 210° |
| 2026-04-20 19:45 | 18.56156 | -72.00645 | 4134 ft | 185 kts | 238° |
| 2026-04-20 19:45 | 18.55759 | -72.01921 | 3944 ft | 185 kts | 267° |
| 2026-04-20 19:46 | 18.55943 | -72.03257 | 3754 ft | 185 kts | 287° |
| 2026-04-20 19:46 | 18.56342 | -72.04549 | 3523 ft | 185 kts | 288° |
| 2026-04-20 19:46 | 18.56722 | -72.05840 | 3272 ft | 184 kts | 287° |
| 2026-04-20 19:46 | 18.56975 | -72.06712 | 3103 ft | 183 kts | 287° |
| 2026-04-20 19:47 | 18.57348 | -72.07988 | 2861 ft | 182 kts | 287° |
| 2026-04-20 19:47 | 18.57713 | -72.09250 | 2643 ft | 182 kts | 287° |
| 2026-04-20 19:47 | 18.58078 | -72.10521 | 2420 ft | 181 kts | 287° |
| 2026-04-20 19:47 | 18.58443 | -72.11788 | 2200 ft | 180 kts | 287° |
| 2026-04-20 19:48 | 18.58782 | -72.13046 | 2123 ft | 178 kts | 279° |
| 2026-04-20 19:48 | 18.58790 | -72.14332 | 2004 ft | 175 kts | 264° |
| 2026-04-20 19:48 | 18.58682 | -72.15630 | 2007 ft | 179 kts | 267° |
| 2026-04-20 19:48 | 18.58628 | -72.16933 | 1975 ft | 171 kts | 267° |
| 2026-04-20 19:49 | 18.58563 | -72.18166 | 1826 ft | 168 kts | 267° |
| 2026-04-20 19:49 | 18.58503 | -72.19382 | 1676 ft | 166 kts | 266° |
| 2026-04-20 19:49 | 18.58440 | -72.20600 | 1471 ft | 166 kts | 266° |
| 2026-04-20 19:49 | 18.58378 | -72.21832 | 1256 ft | 171 kts | 267° |
| 2026-04-20 19:50 | 18.58320 | -72.23019 | 1030 ft | 157 kts | 266° |
| 2026-04-20 19:50 | 18.58262 | -72.24143 | 827 ft | 150 kts | 268° |
| 2026-04-20 19:50 | 18.58202 | -72.25223 | 650 ft | 147 kts | 268° |
| 2026-04-20 19:50 | 18.58150 | -72.26293 | 442 ft | 144 kts | 269° |
| 2026-04-20 19:51 | 18.58097 | -72.27323 | 286 ft | 137 kts | 269° |
| 2026-04-20 19:51 | 18.58054 | -72.28261 | 129 ft | 117 kts | 269° |
| 2026-04-20 19:51 | 18.58018 | -72.28954 | 118 ft | 76 kts | 266° |
| 2026-04-20 19:51 | 18.58000 | -72.29359 | 110 ft | 26 kts | 267° |
| 2026-04-20 19:52 | 18.57945 | -72.29469 | 108 ft | 13 kts | 189° |
| 2026-04-20 19:52 | 18.57852 | -72.29466 | 105 ft | 10 kts | 177° |
| 2026-04-20 19:52 | 18.57824 | -72.29464 | 103 ft | 0 kts | 175° |
| 2026-04-20 19:53 | 18.57780 | -72.29461 | 103 ft | 9 kts | 177° |
| 2026-04-20 19:53 | 18.57716 | -72.29453 | 104 ft | 10 kts | 154° |
| 2026-04-20 19:53 | 18.57688 | -72.29392 | 105 ft | 9 kts | 95° |
| 2026-04-20 19:53 | 18.57686 | -72.29332 | 106 ft | 8 kts | 90° |
| 2026-04-20 19:54 | 18.57686 | -72.29267 | 107 ft | 8 kts | 89° |
| 2026-04-20 19:54 | 18.57688 | -72.29231 | 108 ft | 4 kts | 93° |
| 2026-04-20 19:54 | 18.57675 | -72.29212 | 108 ft | 4 kts | 146° |
| 2026-04-20 19:54 | 18.57643 | -72.29204 | 108 ft | 6 kts | 177° |
| 2026-04-20 19:55 | 18.57634 | -72.29204 | 107 ft | 0 kts | 178° |